sensor_id;sensor_type;location;lat;lon;timestamp;temperature;humidity
46159;DHT22;74657;45.650;25.590;2024-03-29T00:00:28;12.20;94.20
46159;DHT22;74657;45.650;25.590;2024-03-29T00:02:49;12.40;93.20
46159;DHT22;74657;45.650;25.590;2024-03-29T00:05:10;12.30;94.00
46159;DHT22;74657;45.650;25.590;2024-03-29T00:07:30;12.20;93.70
46159;DHT22;74657;45.650;25.590;2024-03-29T00:09:51;12.30;93.20
46159;DHT22;74657;45.650;25.590;2024-03-29T00:12:11;12.40;93.80
46159;DHT22;74657;45.650;25.590;2024-03-29T00:14:32;12.30;93.50
46159;DHT22;74657;45.650;25.590;2024-03-29T00:16:54;12.20;93.90
46159;DHT22;74657;45.650;25.590;2024-03-29T00:19:15;12.20;94.20
46159;DHT22;74657;45.650;25.590;2024-03-29T00:21:35;12.00;94.90
46159;DHT22;74657;45.650;25.590;2024-03-29T00:23:56;11.90;94.30
46159;DHT22;74657;45.650;25.590;2024-03-29T00:26:17;12.20;93.50
46159;DHT22;74657;45.650;25.590;2024-03-29T00:28:38;12.20;94.00
46159;DHT22;74657;45.650;25.590;2024-03-29T00:30:59;12.10;94.30
46159;DHT22;74657;45.650;25.590;2024-03-29T00:36:56;12.20;93.50
46159;DHT22;74657;45.650;25.590;2024-03-29T00:39:17;12.20;93.20
46159;DHT22;74657;45.650;25.590;2024-03-29T00:41:38;12.20;93.80
46159;DHT22;74657;45.650;25.590;2024-03-29T00:43:59;12.20;92.90
46159;DHT22;74657;45.650;25.590;2024-03-29T00:46:20;12.30;92.60
46159;DHT22;74657;45.650;25.590;2024-03-29T00:48:40;12.40;92.20
46159;DHT22;74657;45.650;25.590;2024-03-29T00:51:01;12.50;91.80
46159;DHT22;74657;45.650;25.590;2024-03-29T00:53:23;12.70;91.70
46159;DHT22;74657;45.650;25.590;2024-03-29T00:55:44;12.80;91.30
46159;DHT22;74657;45.650;25.590;2024-03-29T00:58:05;12.80;91.30
46159;DHT22;74657;45.650;25.590;2024-03-29T01:00:26;12.80;91.30
46159;DHT22;74657;45.650;25.590;2024-03-29T01:02:46;12.80;90.90
46159;DHT22;74657;45.650;25.590;2024-03-29T01:05:07;12.90;90.60
46159;DHT22;74657;45.650;25.590;2024-03-29T01:07:28;12.90;90.90
46159;DHT22;74657;45.650;25.590;2024-03-29T01:09:51;12.70;92.20
46159;DHT22;74657;45.650;25.590;2024-03-29T01:12:11;12.30;93.00
46159;DHT22;74657;45.650;25.590;2024-03-29T01:14:32;12.00;93.50
46159;DHT22;74657;45.650;25.590;2024-03-29T01:16:53;11.60;94.00
46159;DHT22;74657;45.650;25.590;2024-03-29T01:19:14;11.30;94.70
46159;DHT22;74657;45.650;25.590;2024-03-29T01:21:35;11.00;95.10
46159;DHT22;74657;45.650;25.590;2024-03-29T01:23:56;10.80;95.80
46159;DHT22;74657;45.650;25.590;2024-03-29T01:26:18;10.60;96.50
46159;DHT22;74657;45.650;25.590;2024-03-29T01:28:39;10.40;96.70
46159;DHT22;74657;45.650;25.590;2024-03-29T01:30:59;10.10;97.40
46159;DHT22;74657;45.650;25.590;2024-03-29T01:33:21;10.00;97.40
46159;DHT22;74657;45.650;25.590;2024-03-29T01:35:41;9.80;98.10
46159;DHT22;74657;45.650;25.590;2024-03-29T01:38:02;9.70;98.30
46159;DHT22;74657;45.650;25.590;2024-03-29T01:40:23;9.40;98.90
46159;DHT22;74657;45.650;25.590;2024-03-29T01:42:45;9.20;99.40
46159;DHT22;74657;45.650;25.590;2024-03-29T01:45:07;9.00;99.80
46159;DHT22;74657;45.650;25.590;2024-03-29T01:47:30;8.90;99.90
46159;DHT22;74657;45.650;25.590;2024-03-29T01:49:52;8.80;99.90
46159;DHT22;74657;45.650;25.590;2024-03-29T01:52:15;8.80;99.90
46159;DHT22;74657;45.650;25.590;2024-03-29T01:54:38;8.80;99.90
46159;DHT22;74657;45.650;25.590;2024-03-29T01:57:00;8.80;99.90
46159;DHT22;74657;45.650;25.590;2024-03-29T01:59:24;8.80;99.90
46159;DHT22;74657;45.650;25.590;2024-03-29T02:01:47;8.80;99.90
46159;DHT22;74657;45.650;25.590;2024-03-29T02:04:09;8.80;99.90
46159;DHT22;74657;45.650;25.590;2024-03-29T02:06:31;8.80;99.90
46159;DHT22;74657;45.650;25.590;2024-03-29T02:08:53;8.90;99.90
46159;DHT22;74657;45.650;25.590;2024-03-29T02:11:16;8.90;99.90
46159;DHT22;74657;45.650;25.590;2024-03-29T02:13:38;8.90;99.90
46159;DHT22;74657;45.650;25.590;2024-03-29T02:16:02;8.90;99.90
46159;DHT22;74657;45.650;25.590;2024-03-29T02:18:24;8.80;99.90
46159;DHT22;74657;45.650;25.590;2024-03-29T02:20:46;8.80;99.90
46159;DHT22;74657;45.650;25.590;2024-03-29T02:23:11;8.70;99.90
46159;DHT22;74657;45.650;25.590;2024-03-29T02:25:35;8.70;99.90
46159;DHT22;74657;45.650;25.590;2024-03-29T02:27:57;8.60;99.90
46159;DHT22;74657;45.650;25.590;2024-03-29T02:30:20;8.60;99.90
46159;DHT22;74657;45.650;25.590;2024-03-29T02:32:42;8.50;99.90
46159;DHT22;74657;45.650;25.590;2024-03-29T02:35:04;8.50;99.90
46159;DHT22;74657;45.650;25.590;2024-03-29T02:37:27;8.40;99.90
46159;DHT22;74657;45.650;25.590;2024-03-29T02:39:49;8.30;99.90
46159;DHT22;74657;45.650;25.590;2024-03-29T02:42:12;8.30;99.90
46159;DHT22;74657;45.650;25.590;2024-03-29T02:44:34;8.30;99.90
46159;DHT22;74657;45.650;25.590;2024-03-29T02:46:56;8.40;99.90
46159;DHT22;74657;45.650;25.590;2024-03-29T02:49:18;8.40;99.90
46159;DHT22;74657;45.650;25.590;2024-03-29T02:51:39;8.40;99.90
46159;DHT22;74657;45.650;25.590;2024-03-29T02:54:01;8.50;99.90
46159;DHT22;74657;45.650;25.590;2024-03-29T02:56:22;8.50;99.90
46159;DHT22;74657;45.650;25.590;2024-03-29T02:58:45;8.50;99.90
46159;DHT22;74657;45.650;25.590;2024-03-29T03:01:07;8.60;99.90
46159;DHT22;74657;45.650;25.590;2024-03-29T03:03:29;8.50;99.90
46159;DHT22;74657;45.650;25.590;2024-03-29T03:05:50;8.50;99.90
46159;DHT22;74657;45.650;25.590;2024-03-29T03:08:15;8.40;99.90
46159;DHT22;74657;45.650;25.590;2024-03-29T03:10:54;8.20;99.90
46159;DHT22;74657;45.650;25.590;2024-03-29T03:13:19;8.20;99.90
46159;DHT22;74657;45.650;25.590;2024-03-29T03:15:43;8.20;99.90
46159;DHT22;74657;45.650;25.590;2024-03-29T03:18:05;8.30;99.90
46159;DHT22;74657;45.650;25.590;2024-03-29T03:20:27;8.30;99.90
46159;DHT22;74657;45.650;25.590;2024-03-29T03:22:51;8.20;99.90
46159;DHT22;74657;45.650;25.590;2024-03-29T03:25:14;8.10;99.90
46159;DHT22;74657;45.650;25.590;2024-03-29T03:27:35;8.10;99.90
46159;DHT22;74657;45.650;25.590;2024-03-29T03:29:57;8.00;99.90
46159;DHT22;74657;45.650;25.590;2024-03-29T03:32:19;8.00;99.90
46159;DHT22;74657;45.650;25.590;2024-03-29T03:34:41;7.90;99.90
46159;DHT22;74657;45.650;25.590;2024-03-29T03:37:03;7.90;99.90
46159;DHT22;74657;45.650;25.590;2024-03-29T03:39:25;7.90;99.90
46159;DHT22;74657;45.650;25.590;2024-03-29T03:41:46;8.00;99.90
46159;DHT22;74657;45.650;25.590;2024-03-29T03:44:08;7.90;99.90
46159;DHT22;74657;45.650;25.590;2024-03-29T03:46:29;8.00;99.90
46159;DHT22;74657;45.650;25.590;2024-03-29T03:48:53;7.90;99.90
46159;DHT22;74657;45.650;25.590;2024-03-29T03:51:13;8.00;99.90
46159;DHT22;74657;45.650;25.590;2024-03-29T03:53:36;8.10;99.90
46159;DHT22;74657;45.650;25.590;2024-03-29T03:55:57;8.20;99.90
46159;DHT22;74657;45.650;25.590;2024-03-29T03:58:19;8.40;99.90
46159;DHT22;74657;45.650;25.590;2024-03-29T04:00:40;8.50;99.90
46159;DHT22;74657;45.650;25.590;2024-03-29T04:03:02;8.60;99.90
46159;DHT22;74657;45.650;25.590;2024-03-29T04:05:25;8.80;99.90
46159;DHT22;74657;45.650;25.590;2024-03-29T04:07:48;8.90;99.90
46159;DHT22;74657;45.650;25.590;2024-03-29T04:10:09;8.90;99.90
46159;DHT22;74657;45.650;25.590;2024-03-29T04:12:31;9.00;99.90
46159;DHT22;74657;45.650;25.590;2024-03-29T04:14:52;9.10;99.90
46159;DHT22;74657;45.650;25.590;2024-03-29T04:17:15;9.20;99.90
46159;DHT22;74657;45.650;25.590;2024-03-29T04:19:36;9.10;99.90
46159;DHT22;74657;45.650;25.590;2024-03-29T04:21:59;9.10;99.90
46159;DHT22;74657;45.650;25.590;2024-03-29T04:24:20;9.30;99.90
46159;DHT22;74657;45.650;25.590;2024-03-29T04:26:42;9.50;99.90
46159;DHT22;74657;45.650;25.590;2024-03-29T04:29:05;9.90;99.40
46159;DHT22;74657;45.650;25.590;2024-03-29T04:31:27;10.30;98.70
46159;DHT22;74657;45.650;25.590;2024-03-29T04:33:47;10.60;98.10
46159;DHT22;74657;45.650;25.590;2024-03-29T04:36:09;11.10;96.70
46159;DHT22;74657;45.650;25.590;2024-03-29T04:38:32;11.30;97.10
46159;DHT22;74657;45.650;25.590;2024-03-29T04:40:56;11.40;96.70
46159;DHT22;74657;45.650;25.590;2024-03-29T04:43:18;11.60;96.40
46159;DHT22;74657;45.650;25.590;2024-03-29T04:45:40;11.80;95.40
46159;DHT22;74657;45.650;25.590;2024-03-29T04:48:02;12.20;94.70
46159;DHT22;74657;45.650;25.590;2024-03-29T04:50:25;12.30;95.00
46159;DHT22;74657;45.650;25.590;2024-03-29T04:52:46;12.50;94.30
46159;DHT22;74657;45.650;25.590;2024-03-29T04:55:09;12.60;94.00
46159;DHT22;74657;45.650;25.590;2024-03-29T04:57:31;12.70;93.90
46159;DHT22;74657;45.650;25.590;2024-03-29T04:59:53;12.90;93.70
46159;DHT22;74657;45.650;25.590;2024-03-29T05:02:15;13.10;92.90
46159;DHT22;74657;45.650;25.590;2024-03-29T05:04:37;13.30;92.70
46159;DHT22;74657;45.650;25.590;2024-03-29T05:07:00;13.30;92.80
46159;DHT22;74657;45.650;25.590;2024-03-29T05:09:22;13.40;92.10
46159;DHT22;74657;45.650;25.590;2024-03-29T05:11:46;13.30;92.30
46159;DHT22;74657;45.650;25.590;2024-03-29T05:14:08;13.30;92.30
46159;DHT22;74657;45.650;25.590;2024-03-29T05:16:30;13.30;92.70
46159;DHT22;74657;45.650;25.590;2024-03-29T05:18:53;13.30;92.50
46159;DHT22;74657;45.650;25.590;2024-03-29T05:21:17;13.30;92.60
46159;DHT22;74657;45.650;25.590;2024-03-29T05:23:39;13.30;92.80
46159;DHT22;74657;45.650;25.590;2024-03-29T05:26:01;13.30;93.00
46159;DHT22;74657;45.650;25.590;2024-03-29T05:28:24;13.30;93.10
46159;DHT22;74657;45.650;25.590;2024-03-29T05:30:46;13.30;93.80
46159;DHT22;74657;45.650;25.590;2024-03-29T05:33:08;13.30;93.50
46159;DHT22;74657;45.650;25.590;2024-03-29T05:35:31;13.30;93.70
46159;DHT22;74657;45.650;25.590;2024-03-29T05:37:53;13.20;94.00
46159;DHT22;74657;45.650;25.590;2024-03-29T05:40:14;13.10;94.60
46159;DHT22;74657;45.650;25.590;2024-03-29T05:42:37;13.10;95.20
46159;DHT22;74657;45.650;25.590;2024-03-29T05:45:00;13.10;95.90
46159;DHT22;74657;45.650;25.590;2024-03-29T05:47:23;13.10;95.90
46159;DHT22;74657;45.650;25.590;2024-03-29T05:49:48;13.10;96.20
46159;DHT22;74657;45.650;25.590;2024-03-29T05:52:10;13.00;96.40
46159;DHT22;74657;45.650;25.590;2024-03-29T05:54:34;13.00;97.40
46159;DHT22;74657;45.650;25.590;2024-03-29T05:56:56;13.00;97.90
46159;DHT22;74657;45.650;25.590;2024-03-29T05:59:18;13.20;98.20
46159;DHT22;74657;45.650;25.590;2024-03-29T06:01:45;13.60;97.40
46159;DHT22;74657;45.650;25.590;2024-03-29T06:04:08;14.00;97.10
46159;DHT22;74657;45.650;25.590;2024-03-29T06:06:36;14.30;96.40
46159;DHT22;74657;45.650;25.590;2024-03-29T06:08:57;14.00;96.90
46159;DHT22;74657;45.650;25.590;2024-03-29T06:11:20;13.70;97.60
46159;DHT22;74657;45.650;25.590;2024-03-29T06:13:42;13.50;97.80
46159;DHT22;74657;45.650;25.590;2024-03-29T06:16:23;13.40;98.60
46159;DHT22;74657;45.650;25.590;2024-03-29T06:19:19;13.40;98.40
46159;DHT22;74657;45.650;25.590;2024-03-29T06:21:41;13.30;98.60
46159;DHT22;74657;45.650;25.590;2024-03-29T06:24:03;13.20;98.90
46159;DHT22;74657;45.650;25.590;2024-03-29T06:26:25;13.40;98.50
46159;DHT22;74657;45.650;25.590;2024-03-29T06:28:47;13.60;97.90
46159;DHT22;74657;45.650;25.590;2024-03-29T06:31:09;13.80;97.20
46159;DHT22;74657;45.650;25.590;2024-03-29T06:33:31;14.10;96.90
46159;DHT22;74657;45.650;25.590;2024-03-29T06:35:55;14.30;95.70
46159;DHT22;74657;45.650;25.590;2024-03-29T06:38:17;14.10;96.10
46159;DHT22;74657;45.650;25.590;2024-03-29T06:40:39;14.20;96.10
46159;DHT22;74657;45.650;25.590;2024-03-29T06:43:01;14.20;96.00
46159;DHT22;74657;45.650;25.590;2024-03-29T06:45:24;14.00;96.30
46159;DHT22;74657;45.650;25.590;2024-03-29T06:47:46;14.00;96.60
46159;DHT22;74657;45.650;25.590;2024-03-29T06:50:09;14.60;95.50
46159;DHT22;74657;45.650;25.590;2024-03-29T06:52:33;15.30;93.90
46159;DHT22;74657;45.650;25.590;2024-03-29T06:54:54;15.50;93.50
46159;DHT22;74657;45.650;25.590;2024-03-29T06:57:19;15.60;93.00
46159;DHT22;74657;45.650;25.590;2024-03-29T06:59:45;15.80;93.00
46159;DHT22;74657;45.650;25.590;2024-03-29T07:02:07;16.80;91.70
46159;DHT22;74657;45.650;25.590;2024-03-29T07:04:30;18.50;90.30
46159;DHT22;74657;45.650;25.590;2024-03-29T07:06:52;19.00;85.70
46159;DHT22;74657;45.650;25.590;2024-03-29T07:09:16;19.30;84.60
46159;DHT22;74657;45.650;25.590;2024-03-29T07:11:38;19.80;81.80
46159;DHT22;74657;45.650;25.590;2024-03-29T07:14:00;19.90;79.60
46159;DHT22;74657;45.650;25.590;2024-03-29T07:16:22;20.40;79.20
46159;DHT22;74657;45.650;25.590;2024-03-29T07:18:44;21.40;76.50
46159;DHT22;74657;45.650;25.590;2024-03-29T07:21:06;22.30;72.10
46159;DHT22;74657;45.650;25.590;2024-03-29T07:23:28;22.70;69.60
46159;DHT22;74657;45.650;25.590;2024-03-29T07:26:03;23.60;66.90
46159;DHT22;74657;45.650;25.590;2024-03-29T07:28:26;24.30;64.00
46159;DHT22;74657;45.650;25.590;2024-03-29T07:30:47;26.20;60.90
46159;DHT22;74657;45.650;25.590;2024-03-29T07:33:10;29.30;56.10
46159;DHT22;74657;45.650;25.590;2024-03-29T07:35:35;31.30;51.60
46159;DHT22;74657;45.650;25.590;2024-03-29T07:37:58;34.00;48.10
46159;DHT22;74657;45.650;25.590;2024-03-29T07:40:20;35.40;45.10
46159;DHT22;74657;45.650;25.590;2024-03-29T07:42:44;34.30;43.70
46159;DHT22;74657;45.650;25.590;2024-03-29T07:45:07;34.40;43.00
46159;DHT22;74657;45.650;25.590;2024-03-29T07:47:29;32.40;43.30
46159;DHT22;74657;45.650;25.590;2024-03-29T07:49:51;29.40;46.00
46159;DHT22;74657;45.650;25.590;2024-03-29T07:52:13;26.00;48.90
46159;DHT22;74657;45.650;25.590;2024-03-29T07:54:37;22.80;52.60
46159;DHT22;74657;45.650;25.590;2024-03-29T07:56:58;22.10;54.90
46159;DHT22;74657;45.650;25.590;2024-03-29T07:59:22;26.20;49.30
46159;DHT22;74657;45.650;25.590;2024-03-29T08:01:44;29.10;47.10
46159;DHT22;74657;45.650;25.590;2024-03-29T08:04:06;32.20;44.80
46159;DHT22;74657;45.650;25.590;2024-03-29T08:06:28;34.70;42.90
46159;DHT22;74657;45.650;25.590;2024-03-29T08:08:51;36.60;41.40
46159;DHT22;74657;45.650;25.590;2024-03-29T08:11:13;37.80;40.60
46159;DHT22;74657;45.650;25.590;2024-03-29T08:13:35;38.30;39.40
46159;DHT22;74657;45.650;25.590;2024-03-29T08:16:00;39.10;39.10
46159;DHT22;74657;45.650;25.590;2024-03-29T08:18:22;39.10;38.90
46159;DHT22;74657;45.650;25.590;2024-03-29T08:20:44;38.20;38.80
46159;DHT22;74657;45.650;25.590;2024-03-29T08:23:06;38.60;38.60
46159;DHT22;74657;45.650;25.590;2024-03-29T08:25:28;39.40;37.60
46159;DHT22;74657;45.650;25.590;2024-03-29T08:27:50;39.10;37.80
46159;DHT22;74657;45.650;25.590;2024-03-29T08:30:18;39.60;37.70
46159;DHT22;74657;45.650;25.590;2024-03-29T08:32:42;40.30;37.60
46159;DHT22;74657;45.650;25.590;2024-03-29T08:35:04;40.70;37.60
46159;DHT22;74657;45.650;25.590;2024-03-29T08:37:27;41.00;37.60
46159;DHT22;74657;45.650;25.590;2024-03-29T08:39:50;40.30;37.20
46159;DHT22;74657;45.650;25.590;2024-03-29T08:42:12;39.10;37.70
46159;DHT22;74657;45.650;25.590;2024-03-29T08:44:34;38.20;37.90
46159;DHT22;74657;45.650;25.590;2024-03-29T08:46:57;37.80;37.90
46159;DHT22;74657;45.650;25.590;2024-03-29T08:49:23;38.50;38.20
46159;DHT22;74657;45.650;25.590;2024-03-29T08:51:45;39.30;37.80
46159;DHT22;74657;45.650;25.590;2024-03-29T08:54:07;37.10;37.70
46159;DHT22;74657;45.650;25.590;2024-03-29T08:56:29;39.00;38.10
46159;DHT22;74657;45.650;25.590;2024-03-29T08:58:51;40.20;38.00
46159;DHT22;74657;45.650;25.590;2024-03-29T09:01:13;38.70;38.20
46159;DHT22;74657;45.650;25.590;2024-03-29T09:03:36;40.00;37.70
46159;DHT22;74657;45.650;25.590;2024-03-29T09:06:00;41.30;37.00
46159;DHT22;74657;45.650;25.590;2024-03-29T09:08:23;43.30;36.50
46159;DHT22;74657;45.650;25.590;2024-03-29T09:10:45;44.30;36.60
46159;DHT22;74657;45.650;25.590;2024-03-29T09:13:07;44.80;35.70
46159;DHT22;74657;45.650;25.590;2024-03-29T09:15:31;43.00;35.40
46159;DHT22;74657;45.650;25.590;2024-03-29T09:17:53;43.00;35.80
46159;DHT22;74657;45.650;25.590;2024-03-29T09:20:15;43.20;35.80
46159;DHT22;74657;45.650;25.590;2024-03-29T09:22:40;43.20;35.20
46159;DHT22;74657;45.650;25.590;2024-03-29T09:25:04;43.10;34.90
46159;DHT22;74657;45.650;25.590;2024-03-29T09:27:27;43.30;35.30
46159;DHT22;74657;45.650;25.590;2024-03-29T09:29:50;43.00;35.30
46159;DHT22;74657;45.650;25.590;2024-03-29T09:32:12;44.30;35.10
46159;DHT22;74657;45.650;25.590;2024-03-29T09:34:37;46.10;34.20
46159;DHT22;74657;45.650;25.590;2024-03-29T09:36:59;46.40;33.80
46159;DHT22;74657;45.650;25.590;2024-03-29T09:39:24;46.50;33.40
46159;DHT22;74657;45.650;25.590;2024-03-29T09:41:46;46.90;33.50
46159;DHT22;74657;45.650;25.590;2024-03-29T09:44:09;46.00;33.60
46159;DHT22;74657;45.650;25.590;2024-03-29T09:46:31;45.10;33.70
46159;DHT22;74657;45.650;25.590;2024-03-29T09:48:55;43.40;33.60
46159;DHT22;74657;45.650;25.590;2024-03-29T09:51:19;42.70;33.90
46159;DHT22;74657;45.650;25.590;2024-03-29T09:53:43;41.90;33.30
46159;DHT22;74657;45.650;25.590;2024-03-29T09:56:07;44.10;34.20
46159;DHT22;74657;45.650;25.590;2024-03-29T09:58:30;45.50;34.20
46159;DHT22;74657;45.650;25.590;2024-03-29T10:00:52;45.10;33.40
46159;DHT22;74657;45.650;25.590;2024-03-29T10:03:17;45.80;33.60
46159;DHT22;74657;45.650;25.590;2024-03-29T10:05:40;46.60;33.00
46159;DHT22;74657;45.650;25.590;2024-03-29T10:08:05;46.70;33.10
46159;DHT22;74657;45.650;25.590;2024-03-29T10:10:27;45.40;32.70
46159;DHT22;74657;45.650;25.590;2024-03-29T10:12:52;44.70;33.10
46159;DHT22;74657;45.650;25.590;2024-03-29T10:15:14;45.50;33.10
46159;DHT22;74657;45.650;25.590;2024-03-29T10:17:38;45.00;33.60
46159;DHT22;74657;45.650;25.590;2024-03-29T10:20:01;45.90;34.00
46159;DHT22;74657;45.650;25.590;2024-03-29T10:22:24;47.10;33.50
46159;DHT22;74657;45.650;25.590;2024-03-29T10:24:46;47.00;33.10
46159;DHT22;74657;45.650;25.590;2024-03-29T10:27:08;47.80;32.90
46159;DHT22;74657;45.650;25.590;2024-03-29T10:29:32;48.20;32.90
46159;DHT22;74657;45.650;25.590;2024-03-29T10:31:55;48.40;33.10
46159;DHT22;74657;45.650;25.590;2024-03-29T10:34:18;48.30;32.60
46159;DHT22;74657;45.650;25.590;2024-03-29T10:36:40;48.10;32.20
46159;DHT22;74657;45.650;25.590;2024-03-29T10:39:04;47.90;32.00
46159;DHT22;74657;45.650;25.590;2024-03-29T10:41:32;46.50;32.10
46159;DHT22;74657;45.650;25.590;2024-03-29T10:43:56;46.40;32.50
46159;DHT22;74657;45.650;25.590;2024-03-29T10:46:21;45.80;32.60
46159;DHT22;74657;45.650;25.590;2024-03-29T10:48:44;44.90;32.80
46159;DHT22;74657;45.650;25.590;2024-03-29T10:51:07;44.10;33.30
46159;DHT22;74657;45.650;25.590;2024-03-29T10:53:29;43.50;34.00
46159;DHT22;74657;45.650;25.590;2024-03-29T10:55:54;43.40;32.60
46159;DHT22;74657;45.650;25.590;2024-03-29T10:58:18;42.30;33.50
46159;DHT22;74657;45.650;25.590;2024-03-29T11:00:47;42.20;33.50
46159;DHT22;74657;45.650;25.590;2024-03-29T11:03:13;42.20;33.00
46159;DHT22;74657;45.650;25.590;2024-03-29T11:05:38;42.40;33.70
46159;DHT22;74657;45.650;25.590;2024-03-29T11:08:03;42.20;33.90
46159;DHT22;74657;45.650;25.590;2024-03-29T11:10:30;42.60;33.40
46159;DHT22;74657;45.650;25.590;2024-03-29T11:13:01;42.50;33.70
46159;DHT22;74657;45.650;25.590;2024-03-29T11:15:29;42.70;33.10
46159;DHT22;74657;45.650;25.590;2024-03-29T11:17:53;42.30;33.50
46159;DHT22;74657;45.650;25.590;2024-03-29T11:20:18;40.60;33.50
46159;DHT22;74657;45.650;25.590;2024-03-29T11:22:44;40.30;33.70
46159;DHT22;74657;45.650;25.590;2024-03-29T11:25:11;38.60;33.90
46159;DHT22;74657;45.650;25.590;2024-03-29T11:27:34;38.30;34.60
46159;DHT22;74657;45.650;25.590;2024-03-29T11:29:56;38.00;34.60
46159;DHT22;74657;45.650;25.590;2024-03-29T11:32:36;37.70;34.90
46159;DHT22;74657;45.650;25.590;2024-03-29T11:34:59;36.70;34.90
46159;DHT22;74657;45.650;25.590;2024-03-29T11:37:29;35.80;33.60
46159;DHT22;74657;45.650;25.590;2024-03-29T11:39:54;35.30;35.20
46159;DHT22;74657;45.650;25.590;2024-03-29T11:42:16;34.60;36.50
46159;DHT22;74657;45.650;25.590;2024-03-29T11:44:38;33.90;35.90
46159;DHT22;74657;45.650;25.590;2024-03-29T11:47:01;33.00;36.40
46159;DHT22;74657;45.650;25.590;2024-03-29T11:49:26;32.20;37.30
46159;DHT22;74657;45.650;25.590;2024-03-29T11:51:48;31.30;39.10
46159;DHT22;74657;45.650;25.590;2024-03-29T11:54:12;30.60;38.80
46159;DHT22;74657;45.650;25.590;2024-03-29T11:56:34;30.20;39.40
46159;DHT22;74657;45.650;25.590;2024-03-29T11:58:57;30.00;38.80
46159;DHT22;74657;45.650;25.590;2024-03-29T12:01:21;29.70;39.10
46159;DHT22;74657;45.650;25.590;2024-03-29T12:03:43;29.10;40.30
46159;DHT22;74657;45.650;25.590;2024-03-29T12:06:06;28.50;39.60
46159;DHT22;74657;45.650;25.590;2024-03-29T12:08:29;27.90;41.80
46159;DHT22;74657;45.650;25.590;2024-03-29T12:10:53;27.50;40.90
46159;DHT22;74657;45.650;25.590;2024-03-29T12:13:17;27.10;42.50
46159;DHT22;74657;45.650;25.590;2024-03-29T12:15:39;26.70;41.90
46159;DHT22;74657;45.650;25.590;2024-03-29T12:18:03;26.40;42.90
46159;DHT22;74657;45.650;25.590;2024-03-29T12:20:26;26.10;42.70
46159;DHT22;74657;45.650;25.590;2024-03-29T12:22:50;25.70;43.30
46159;DHT22;74657;45.650;25.590;2024-03-29T12:25:13;25.20;44.50
46159;DHT22;74657;45.650;25.590;2024-03-29T12:27:37;24.50;45.10
46159;DHT22;74657;45.650;25.590;2024-03-29T12:29:59;24.00;46.40
46159;DHT22;74657;45.650;25.590;2024-03-29T12:32:21;23.60;46.70
46159;DHT22;74657;45.650;25.590;2024-03-29T12:34:46;23.30;46.00
46159;DHT22;74657;45.650;25.590;2024-03-29T12:37:09;23.20;46.40
46159;DHT22;74657;45.650;25.590;2024-03-29T12:39:32;23.00;47.80
46159;DHT22;74657;45.650;25.590;2024-03-29T12:41:56;22.90;47.80
46159;DHT22;74657;45.650;25.590;2024-03-29T12:44:22;22.90;48.40
46159;DHT22;74657;45.650;25.590;2024-03-29T12:46:45;22.80;47.40
46159;DHT22;74657;45.650;25.590;2024-03-29T12:49:06;22.70;48.60
46159;DHT22;74657;45.650;25.590;2024-03-29T12:51:29;22.60;48.60
46159;DHT22;74657;45.650;25.590;2024-03-29T12:53:55;22.30;49.10
46159;DHT22;74657;45.650;25.590;2024-03-29T12:56:21;22.10;50.40
46159;DHT22;74657;45.650;25.590;2024-03-29T12:58:43;21.90;50.10
46159;DHT22;74657;45.650;25.590;2024-03-29T13:01:07;21.90;49.50
46159;DHT22;74657;45.650;25.590;2024-03-29T13:03:30;21.80;50.50
46159;DHT22;74657;45.650;25.590;2024-03-29T13:05:52;21.70;50.90
46159;DHT22;74657;45.650;25.590;2024-03-29T13:08:15;21.70;51.40
46159;DHT22;74657;45.650;25.590;2024-03-29T13:10:37;21.70;51.80
46159;DHT22;74657;45.650;25.590;2024-03-29T13:12:59;21.50;51.00
46159;DHT22;74657;45.650;25.590;2024-03-29T13:15:23;21.30;51.70
46159;DHT22;74657;45.650;25.590;2024-03-29T13:17:47;21.10;52.20
46159;DHT22;74657;45.650;25.590;2024-03-29T13:20:11;21.00;52.60
46159;DHT22;74657;45.650;25.590;2024-03-29T13:22:33;20.90;52.40
46159;DHT22;74657;45.650;25.590;2024-03-29T13:24:55;20.90;51.80
46159;DHT22;74657;45.650;25.590;2024-03-29T13:27:17;20.90;51.80
46159;DHT22;74657;45.650;25.590;2024-03-29T13:29:39;20.80;52.50
46159;DHT22;74657;45.650;25.590;2024-03-29T13:32:01;20.80;52.00
46159;DHT22;74657;45.650;25.590;2024-03-29T13:34:25;20.70;53.00
46159;DHT22;74657;45.650;25.590;2024-03-29T13:36:47;20.60;53.20
46159;DHT22;74657;45.650;25.590;2024-03-29T13:39:09;20.40;54.10
46159;DHT22;74657;45.650;25.590;2024-03-29T13:41:33;20.50;54.40
46159;DHT22;74657;45.650;25.590;2024-03-29T13:43:56;20.70;53.30
46159;DHT22;74657;45.650;25.590;2024-03-29T13:46:20;20.60;53.40
46159;DHT22;74657;45.650;25.590;2024-03-29T13:48:42;20.50;53.20
46159;DHT22;74657;45.650;25.590;2024-03-29T13:51:08;20.40;54.30
46159;DHT22;74657;45.650;25.590;2024-03-29T13:53:30;20.40;51.90
46159;DHT22;74657;45.650;25.590;2024-03-29T13:55:55;20.30;54.30
46159;DHT22;74657;45.650;25.590;2024-03-29T13:58:17;20.20;54.90
46159;DHT22;74657;45.650;25.590;2024-03-29T14:00:39;20.20;54.60
46159;DHT22;74657;45.650;25.590;2024-03-29T14:03:03;20.10;53.60
46159;DHT22;74657;45.650;25.590;2024-03-29T14:05:25;20.00;54.50
46159;DHT22;74657;45.650;25.590;2024-03-29T14:07:48;19.90;54.90
46159;DHT22;74657;45.650;25.590;2024-03-29T14:10:10;19.90;56.10
46159;DHT22;74657;45.650;25.590;2024-03-29T14:12:33;20.00;55.60
46159;DHT22;74657;45.650;25.590;2024-03-29T14:14:55;20.00;53.90
46159;DHT22;74657;45.650;25.590;2024-03-29T14:17:17;19.90;54.80
46159;DHT22;74657;45.650;25.590;2024-03-29T14:19:39;19.80;55.40
46159;DHT22;74657;45.650;25.590;2024-03-29T14:22:02;19.80;55.90
46159;DHT22;74657;45.650;25.590;2024-03-29T14:24:25;19.80;55.70
46159;DHT22;74657;45.650;25.590;2024-03-29T14:26:48;19.70;55.20
46159;DHT22;74657;45.650;25.590;2024-03-29T14:29:10;19.80;55.60
46159;DHT22;74657;45.650;25.590;2024-03-29T14:31:33;19.80;56.20
46159;DHT22;74657;45.650;25.590;2024-03-29T14:33:55;19.80;56.40
46159;DHT22;74657;45.650;25.590;2024-03-29T14:36:17;19.70;56.00
46159;DHT22;74657;45.650;25.590;2024-03-29T14:38:39;19.60;54.90
46159;DHT22;74657;45.650;25.590;2024-03-29T14:41:03;19.60;57.20
46159;DHT22;74657;45.650;25.590;2024-03-29T14:43:25;19.50;57.10
46159;DHT22;74657;45.650;25.590;2024-03-29T14:45:47;19.50;57.30
46159;DHT22;74657;45.650;25.590;2024-03-29T14:48:09;19.50;57.30
46159;DHT22;74657;45.650;25.590;2024-03-29T14:50:31;19.50;57.40
46159;DHT22;74657;45.650;25.590;2024-03-29T14:52:53;19.50;57.10
46159;DHT22;74657;45.650;25.590;2024-03-29T14:55:16;19.50;57.20